This is the latest recevied weather packets stored in our database for station/object KB4MOX. If no packets are shown the sender has not sent any weather packets the latest 10 day(s).
| Time | Temp. | Humidity | Pressure | Rain* | Wind** | Luminosity | Snow |
|---|---|---|---|---|---|---|---|
| 1778192678 | 25.56° C | 70% | 1010.8 hPa | 0 mm | - | 252 W/m² | - |
| 1778192374 | 25.56° C | 70% | 1010.9 hPa | 0 mm | - | 242 W/m² | - |
| 1778192071 | 25.56° C | 73% | 1010.9 hPa | 0 mm | - | 267 W/m² | - |
| 1778191766 | 25.56° C | 73% | 1011.1 hPa | 0 mm | - | 149 W/m² | - |
| 1778191464 | 26.11° C | 73% | 1011 hPa | 0 mm | - | 141 W/m² | - |
| 1778191161 | 25.56° C | 74% | 1010.7 hPa | 0 mm | - | 370 W/m² | - |
| 1778190858 | 26.11° C | 71% | 1011 hPa | 0 mm | - | 113 W/m² | - |
| 1778190555 | 25.56° C | 72% | 1010.8 hPa | 0 mm | - | 399 W/m² | - |
| 1778190253 | 25.56° C | 71% | 1010.7 hPa | 0 mm | - | 110 W/m² | - |
| 1778189948 | 25.56° C | 72% | 1010.6 hPa | 0 mm | - | 384 W/m² | - |
| 1778189644 | 26.11° C | 70% | 1010.7 hPa | 0 mm | - | 88 W/m² | - |
| 1778189341 | 26.11° C | 72% | 1010.8 hPa | 0 mm | - | 442 W/m² | - |
| 1778189037 | 26.11° C | 71% | 1010.6 hPa | 0 mm | - | 449 W/m² | - |
| 1778188734 | 26.11° C | 72% | 1010.6 hPa | 0 mm | - | 466 W/m² | - |
| 1778188430 | 26.11° C | 74% | 1010.6 hPa | 0 mm | - | 486 W/m² | - |
| 1778188127 | 25.56° C | 74% | 1010.6 hPa | 0 mm | - | 546 W/m² | - |
| 1778187824 | 25° C | 77% | 1010.6 hPa | 0 mm | - | 334 W/m² | - |
| 1778187521 | 25° C | 80% | 1010.7 hPa | 0 mm | - | 592 W/m² | - |
| 1778187218 | 24.44° C | 79% | 1010.7 hPa | 0 mm | - | 291 W/m² | - |
| 1778186914 | 23.89° C | 80% | 1010.5 hPa | 0 mm | - | 207 W/m² | - |
| 1778186611 | 24.44° C | 78% | 1010.7 hPa | 0 mm | - | 195 W/m² | - |
| 1778186309 | 23.89° C | 80% | 1010.6 hPa | 0 mm | - | 191 W/m² | - |
| 1778186007 | 23.89° C | 81% | 1010.6 hPa | 0 mm | - | 199 W/m² | - |
| 1778185703 | 23.89° C | 81% | 1010.9 hPa | 0 mm | - | 157 W/m² | - |
| 1778185399 | 23.89° C | 80% | 1010.7 hPa | 0 mm | - | 176 W/m² | - |
* Rain latest hour (hover to see other rain measurements)
** Current wind speed in m/s (hover to see current wind gust speed)